Notice: Use of undefined constant NAME - assumed 'NAME' in /home/bismarckweather/public_html/wxwuhistory.php on line 72

Notice: Use of undefined constant NAME - assumed 'NAME' in /home/bismarckweather/public_html/wxwuhistory.php on line 72
^^
Station Historical Data
Daily Summary for February 15, 2018 Units:  English    Metric   Both
« Previous Day
Next Day »
Daily Weekly Monthly Yearly Custom
  High: Low: Average:
Temperature: 33.2 °F -3.6 °F 11.2 °F
Dew Point: 31.7 °F -9.3 °F 6.6 °F
Humidity: 95% 67% 81%
Wind Speed: 17.0mph 0.0mph 5.5mph
Wind Gust: 23.0mph - -
Wind- - SSW
Pressure: 30.35 in 29.63 in -
Precipitation: 0.00 in    
Historical Graphs
 
 
Tabular Data for February 15, 2018
Time Temperature Dew Point Pressure Wind Wind Speed Wind Gust Humidity Rainfall Rate (Hourly) solar Conditions
00:04 33.2 °F 31.4 °F 29.63 in Calm   6.0 mph 93% 0.00 in 0 W/m2
00:09 33.1 °F 31.3 °F 29.63 in NW 4.0 mph 6.0 mph 93% 0.00 in 0 W/m2
00:14 33.1 °F 31.3 °F 29.63 in NNW 4.0 mph 5.0 mph 93% 0.00 in 0 W/m2
00:19 33.1 °F 31.3 °F 29.63 in NW 3.0 mph 5.0 mph 93% 0.00 in 0 W/m2
00:24 33.1 °F 31.3 °F 29.64 in Calm   5.0 mph 93% 0.00 in 0 W/m2
00:29 33.1 °F 31.6 °F 29.64 in Calm   5.0 mph 94% 0.00 in 0 W/m2
00:34 33.1 °F 31.6 °F 29.64 in WNW 2.0 mph 5.0 mph 94% 0.00 in 0 W/m2
00:39 33.1 °F 31.6 °F 29.64 in Calm   5.0 mph 94% 0.00 in 0 W/m2
00:44 33.1 °F 31.6 °F 29.65 in NW 4.0 mph 5.0 mph 94% 0.00 in 0 W/m2
00:49 33.1 °F 31.6 °F 29.65 in NW 3.0 mph 5.0 mph 94% 0.00 in 0 W/m2
00:54 33.1 °F 31.6 °F 29.65 in NW 3.0 mph 5.0 mph 94% 0.00 in 0 W/m2
00:59 33.2 °F 31.7 °F 29.65 in NW 3.0 mph 5.0 mph 94% 0.00 in 0 W/m2
01:04 33.1 °F 31.6 °F 29.65 in NW 4.0 mph 5.0 mph 94% 0.00 in 0 W/m2
01:09 33.1 °F 31.6 °F 29.65 in NNW 4.0 mph 5.0 mph 94% 0.00 in 0 W/m2
01:14 33.1 °F 31.6 °F 29.65 in NNW 5.0 mph 5.0 mph 94% 0.00 in 0 W/m2
01:19 33.1 °F 31.6 °F 29.66 in NW 4.0 mph 5.0 mph 94% 0.00 in 0 W/m2
01:24 33.1 °F 31.6 °F 29.66 in NW 5.0 mph 5.0 mph 94% 0.00 in 0 W/m2
01:29 33.1 °F 31.6 °F 29.66 in NW 3.0 mph 5.0 mph 94% 0.00 in 0 W/m2
01:34 33.1 °F 31.6 °F 29.66 in NW 6.0 mph 6.0 mph 94% 0.00 in 0 W/m2
01:39 33.0 °F 31.5 °F 29.66 in NW 3.0 mph 6.0 mph 94% 0.00 in 0 W/m2
01:44 32.9 °F 31.4 °F 29.67 in NNW 4.0 mph 6.0 mph 94% 0.00 in 0 W/m2
01:49 32.9 °F 31.4 °F 29.67 in North 3.0 mph 5.0 mph 94% 0.00 in 0 W/m2
01:54 32.8 °F 31.3 °F 29.68 in Calm   5.0 mph 94% 0.00 in 0 W/m2
01:59 32.7 °F 31.4 °F 29.68 in NNE 3.0 mph 6.0 mph 95% 0.00 in 0 W/m2
02:04 32.5 °F 31.0 °F 29.68 in NNE 4.0 mph 6.0 mph 94% 0.00 in 0 W/m2
02:09 32.3 °F 30.8 °F 29.68 in NNE 3.0 mph 6.0 mph 94% 0.00 in 0 W/m2
02:14 32.2 °F 30.7 °F 29.69 in NNE 4.0 mph 5.0 mph 94% 0.00 in 0 W/m2
02:19 31.4 °F 29.9 °F 29.69 in NE 5.0 mph 10.0 mph 94% 0.00 in 0 W/m2
02:24 29.2 °F 27.2 °F 29.70 in NE 4.0 mph 10.0 mph 92% 0.00 in 0 W/m2
02:29 27.9 °F 26.1 °F 29.70 in NE 5.0 mph 8.0 mph 93% 0.00 in 0 W/m2
02:34 27.4 °F 25.6 °F 29.71 in ENE 4.0 mph 8.0 mph 93% 0.00 in 0 W/m2
02:39 27.0 °F 25.2 °F 29.71 in NE 4.0 mph 8.0 mph 93% 0.00 in 0 W/m2
02:44 26.7 °F 24.9 °F 29.71 in NE 5.0 mph 7.0 mph 93% 0.00 in 0 W/m2
02:49 26.5 °F 24.8 °F 29.72 in NE 4.0 mph 7.0 mph 93% 0.00 in 0 W/m2
02:54 26.3 °F 24.6 °F 29.72 in ENE 7.0 mph 8.0 mph 93% 0.00 in 0 W/m2
02:59 26.1 °F 24.4 °F 29.73 in ENE 5.0 mph 8.0 mph 93% 0.00 in 0 W/m2
03:04 25.9 °F 24.2 °F 29.73 in NE 6.0 mph 8.0 mph 93% 0.00 in 0 W/m2
03:09 25.7 °F 23.7 °F 29.73 in NE 5.0 mph 8.0 mph 92% 0.00 in 0 W/m2
03:14 25.6 °F 23.6 °F 29.73 in NE 4.0 mph 7.0 mph 92% 0.00 in 0 W/m2
03:19 25.6 °F 23.6 °F 29.74 in NNE 5.0 mph 7.0 mph 92% 0.00 in 0 W/m2
03:24 25.6 °F 23.6 °F 29.74 in NE 5.0 mph 8.0 mph 92% 0.00 in 0 W/m2
03:29 25.6 °F 23.6 °F 29.74 in NE 4.0 mph 8.0 mph 92% 0.00 in 0 W/m2
03:34 25.2 °F 23.2 °F 29.75 in NE 7.0 mph 9.0 mph 92% 0.00 in 0 W/m2
03:39 24.5 °F 22.2 °F 29.75 in NE 5.0 mph 9.0 mph 91% 0.00 in 0 W/m2
03:44 23.9 °F 21.7 °F 29.76 in NE 7.0 mph 9.0 mph 91% 0.00 in 0 W/m2
03:49 23.5 °F 21.3 °F 29.76 in NE 4.0 mph 9.0 mph 91% 0.00 in 0 W/m2
03:54 23.3 °F 21.1 °F 29.76 in NE 7.0 mph 9.0 mph 91% 0.00 in 0 W/m2
03:59 23.1 °F 20.6 °F 29.76 in NE 6.0 mph 9.0 mph 90% 0.00 in 0 W/m2
04:04 23.0 °F 20.5 °F 29.76 in NE 5.0 mph 8.0 mph 90% 0.00 in 0 W/m2
04:09 23.0 °F 20.5 °F 29.76 in NE 5.0 mph 8.0 mph 90% 0.00 in 0 W/m2
04:14 22.9 °F 20.4 °F 29.76 in NE 5.0 mph 10.0 mph 90% 0.00 in 0 W/m2
04:19 22.8 °F 20.3 °F 29.76 in NE 5.0 mph 10.0 mph 90% 0.00 in 0 W/m2
04:24 22.8 °F 20.3 °F 29.77 in NE 5.0 mph 9.0 mph 90% 0.00 in 0 W/m2
04:29 22.7 °F 20.2 °F 29.77 in NE 4.0 mph 8.0 mph 90% 0.00 in 0 W/m2
04:34 22.7 °F 20.2 °F 29.77 in NE 4.0 mph 8.0 mph 90% 0.00 in 0 W/m2
04:39 22.6 °F 19.8 °F 29.78 in NNE 4.0 mph 8.0 mph 89% 0.00 in 0 W/m2
04:44 22.5 °F 19.7 °F 29.78 in NE 5.0 mph 8.0 mph 89% 0.00 in 0 W/m2
04:49 22.5 °F 19.7 °F 29.79 in NE 7.0 mph 8.0 mph 89% 0.00 in 0 W/m2
04:54 22.4 °F 19.6 °F 29.79 in NE 6.0 mph 8.0 mph 89% 0.00 in 0 W/m2
04:59 22.4 °F 19.6 °F 29.80 in ENE 7.0 mph 8.0 mph 89% 0.00 in 0 W/m2
05:04 22.4 °F 19.6 °F 29.81 in NNE 5.0 mph 8.0 mph 89% 0.00 in 0 W/m2
05:09 22.4 °F 19.6 °F 29.80 in NE 5.0 mph 8.0 mph 89% 0.00 in 0 W/m2
05:14 22.4 °F 19.6 °F 29.80 in NE 4.0 mph 6.0 mph 89% 0.00 in 0 W/m2
05:19 22.5 °F 19.7 °F 29.81 in NE 4.0 mph 6.0 mph 89% 0.00 in 0 W/m2
05:24 22.5 °F 19.7 °F 29.81 in NE 4.0 mph 5.0 mph 89% 0.00 in 0 W/m2
05:29 22.4 °F 19.6 °F 29.81 in NE 4.0 mph 5.0 mph 89% 0.00 in 0 W/m2
05:34 22.4 °F 19.6 °F 29.81 in NE 4.0 mph 7.0 mph 89% 0.00 in 0 W/m2
05:39 22.4 °F 19.6 °F 29.81 in ENE 5.0 mph 7.0 mph 89% 0.00 in 0 W/m2
05:44 22.2 °F 19.2 °F 29.81 in NNE 5.0 mph 9.0 mph 88% 0.00 in 0 W/m2
05:49 22.0 °F 19.0 °F 29.82 in NE 5.0 mph 9.0 mph 88% 0.00 in 0 W/m2
05:54 21.8 °F 18.8 °F 29.83 in NE 7.0 mph 8.0 mph 88% 0.00 in 0 W/m2
05:59 21.6 °F 18.6 °F 29.83 in NE 7.0 mph 8.0 mph 88% 0.00 in 0 W/m2
06:04 21.3 °F 18.3 °F 29.84 in NNE 7.0 mph 9.0 mph 88% 0.00 in 0 W/m2
06:09 20.9 °F 17.9 °F 29.85 in NE 7.0 mph 11.0 mph 88% 0.00 in 0 W/m2
06:14 20.5 °F 17.5 °F 29.85 in NE 6.0 mph 11.0 mph 88% 0.00 in 0 W/m2
06:19 20.1 °F 17.1 °F 29.85 in NNE 7.0 mph 14.0 mph 88% 0.00 in 0 W/m2
06:24 19.3 °F 16.1 °F 29.86 in NNE 5.0 mph 14.0 mph 87% 0.00 in 0 W/m2
06:29 18.9 °F 15.4 °F 29.86 in NE 6.0 mph 10.0 mph 86% 0.00 in 0 W/m2
06:34 18.5 °F 15.0 °F 29.86 in NE 8.0 mph 10.0 mph 86% 0.00 in 0 W/m2
06:39 18.2 °F 14.7 °F 29.86 in NNE 7.0 mph 13.0 mph 86% 0.00 in 0 W/m2
06:44 18.1 °F 14.9 °F 29.86 in NE 7.0 mph 13.0 mph 87% 0.00 in 0 W/m2
06:49 18.0 °F 14.8 °F 29.86 in NE 5.0 mph 11.0 mph 87% 0.00 in 0 W/m2
06:54 17.9 °F 14.7 °F 29.87 in NNE 8.0 mph 10.0 mph 87% 0.00 in 0 W/m2
06:59 17.6 °F 14.4 °F 29.87 in NNE 7.0 mph 11.0 mph 87% 0.00 in 0 W/m2
07:04 17.2 °F 14.0 °F 29.88 in NNE 6.0 mph 11.0 mph 87% 0.00 in 0 W/m2
07:09 16.8 °F 13.3 °F 29.89 in NE 7.0 mph 12.0 mph 86% 0.00 in 0 W/m2
07:14 16.5 °F 13.0 °F 29.89 in North 7.0 mph 12.0 mph 86% 0.00 in 0 W/m2
07:19 16.2 °F 12.7 °F 29.90 in NNE 7.0 mph 11.0 mph 86% 0.00 in 0 W/m2
07:24 15.5 °F 11.8 °F 29.90 in North 5.0 mph 11.0 mph 85% 0.00 in 0 W/m2
07:29 14.9 °F 11.2 °F 29.91 in North 12.0 mph 12.0 mph 85% 0.00 in 0 W/m2
07:34 14.3 °F 10.6 °F 29.91 in North 8.0 mph 16.0 mph 85% 0.00 in 0 W/m2
07:39 14.0 °F 10.3 °F 29.91 in NNE 12.0 mph 16.0 mph 85% 0.00 in 0 W/m2
07:44 13.8 °F 10.4 °F 29.92 in NNE 7.0 mph 15.0 mph 86% 0.00 in 0 W/m2
07:49 13.3 °F 9.6 °F 29.92 in NE 7.0 mph 13.0 mph 85% 0.00 in 5 W/m2
07:54 13.0 °F 9.3 °F 29.92 in NNE 10.0 mph 12.0 mph 85% 0.00 in 9 W/m2
07:55 12.9 °F 9.2 °F 29.92 in North 6.0 mph 12.0 mph 85% 0.00 in 11 W/m2
08:00 12.8 °F 9.1 °F 29.93 in NNE 7.0 mph 10.0 mph 85% 0.00 in 19 W/m2
08:05 12.7 °F 9.0 °F 29.93 in North 5.0 mph 10.0 mph 85% 0.00 in 30 W/m2
08:10 12.4 °F 8.7 °F 29.94 in NNE 8.0 mph 10.0 mph 85% 0.00 in 30 W/m2
08:15 12.3 °F 8.7 °F 29.94 in North 6.0 mph 11.0 mph 85% 0.00 in 30 W/m2
08:20 12.2 °F 8.6 °F 29.95 in NNE 8.0 mph 11.0 mph 85% 0.00 in 33 W/m2
08:25 11.7 °F 7.8 °F 29.95 in NNE 7.0 mph 12.0 mph 84% 0.00 in 33 W/m2
08:30 11.5 °F 7.6 °F 29.95 in NNE 5.0 mph 12.0 mph 84% 0.00 in 35 W/m2
08:35 11.4 °F 7.5 °F 29.96 in NNE 5.0 mph 11.0 mph 84% 0.00 in 39 W/m2
08:40 11.3 °F 7.4 °F 29.96 in NNE 7.0 mph 9.0 mph 84% 0.00 in 42 W/m2
08:45 11.4 °F 7.5 °F 29.97 in North 5.0 mph 9.0 mph 84% 0.00 in 47 W/m2
08:50 11.3 °F 7.4 °F 29.97 in North 5.0 mph 10.0 mph 84% 0.00 in 62 W/m2
08:55 11.3 °F 7.7 °F 29.98 in NNE 4.0 mph 10.0 mph 85% 0.00 in 69 W/m2
09:00 11.1 °F 7.2 °F 29.98 in NNE 10.0 mph 10.0 mph 84% 0.00 in 72 W/m2
09:05 10.7 °F 6.8 °F 29.98 in NNE 9.0 mph 13.0 mph 84% 0.00 in 72 W/m2
09:10 10.5 °F 6.6 °F 29.99 in NNE 7.0 mph 13.0 mph 84% 0.00 in 69 W/m2
09:15 10.3 °F 6.4 °F 29.99 in NNE 5.0 mph 11.0 mph 84% 0.00 in 76 W/m2
09:20 10.2 °F 6.3 °F 29.99 in NNE 6.0 mph 11.0 mph 84% 0.00 in 97 W/m2
09:25 10.2 °F 6.3 °F 30.00 in NNE 5.0 mph 10.0 mph 84% 0.00 in 113 W/m2
09:30 10.2 °F 6.3 °F 30.00 in North 8.0 mph 8.0 mph 84% 0.00 in 121 W/m2
09:35 10.3 °F 6.7 °F 30.00 in NNE 4.0 mph 9.0 mph 85% 0.00 in 142 W/m2
09:40 10.4 °F 6.5 °F 30.00 in NNE 6.0 mph 9.0 mph 84% 0.00 in 176 W/m2
09:45 10.4 °F 6.5 °F 30.01 in NNE 5.0 mph 9.0 mph 84% 0.00 in 188 W/m2
09:50 10.6 °F 6.7 °F 30.01 in North 6.0 mph 9.0 mph 84% 0.00 in 188 W/m2
09:55 10.5 °F 6.4 °F 30.02 in NNE 5.0 mph 9.0 mph 83% 0.00 in 193 W/m2
10:00 10.4 °F 6.3 °F 30.02 in North 4.0 mph 8.0 mph 83% 0.00 in 186 W/m2
10:05 10.2 °F 6.1 °F 30.03 in North 5.0 mph 9.0 mph 83% 0.00 in 169 W/m2
10:10 10.1 °F 6.0 °F 30.03 in North 9.0 mph 9.0 mph 83% 0.00 in 174 W/m2
10:15 10.1 °F 6.0 °F 30.04 in NNE 5.0 mph 9.0 mph 83% 0.00 in 158 W/m2
10:20 10.0 °F 5.9 °F 30.04 in NNE 5.0 mph 9.0 mph 83% 0.00 in 158 W/m2
10:25 9.8 °F 5.7 °F 30.04 in NNE 4.0 mph 8.0 mph 83% 0.00 in 171 W/m2
10:30 9.9 °F 6.0 °F 30.04 in North 7.0 mph 9.0 mph 84% 0.00 in 200 W/m2
10:35 9.9 °F 6.0 °F 30.05 in NNE 7.0 mph 8.0 mph 84% 0.00 in 190 W/m2
10:40 9.9 °F 6.0 °F 30.05 in North 7.0 mph 9.0 mph 84% 0.00 in 190 W/m2
10:45 9.9 °F 6.0 °F 30.06 in NNE 7.0 mph 9.0 mph 84% 0.00 in 192 W/m2
10:50 9.9 °F 6.0 °F 30.06 in NNE 7.0 mph 9.0 mph 84% 0.00 in 204 W/m2
10:56 9.9 °F 6.0 °F 30.06 in NNE 9.0 mph 9.0 mph 84% 0.00 in 193 W/m2
11:01 9.9 °F 5.8 °F 30.07 in North 5.0 mph 5.0 mph 83% 0.00 in 227 W/m2
11:06 9.9 °F 5.8 °F 30.08 in North 5.0 mph 5.0 mph 83% 0.00 in 223 W/m2
11:11 9.5 °F 5.1 °F 30.08 in NNE 4.0 mph 9.0 mph 82% 0.00 in 227 W/m2
11:16 9.3 °F 4.9 °F 30.08 in North 8.0 mph 11.0 mph 82% 0.00 in 225 W/m2
11:21 8.6 °F 4.2 °F 30.09 in North 11.0 mph 11.0 mph 82% 0.00 in 237 W/m2
11:26 7.9 °F 3.5 °F 30.09 in NNW 11.0 mph 14.0 mph 82% 0.00 in 239 W/m2
11:31 7.8 °F 3.7 °F 30.10 in North 6.0 mph 14.0 mph 83% 0.00 in 264 W/m2
11:41 7.8 °F 3.7 °F 30.11 in NNW 12.0 mph 14.0 mph 83% 0.00 in 285 W/m2
11:46 7.8 °F 3.4 °F 30.11 in NNW 8.0 mph 14.0 mph 82% 0.00 in 290 W/m2
11:47 7.7 °F 3.4 °F 30.11 in NNW 7.0 mph 14.0 mph 82% 0.00 in 287 W/m2
11:50 7.7 °F 3.4 °F 30.12 in North 14.0 mph 14.0 mph 82% 0.00 in 287 W/m2
11:52 7.8 °F 3.7 °F 30.11 in NNW 8.0 mph 14.0 mph 83% 0.00 in 271 W/m2
11:57 7.4 °F 3.1 °F 30.11 in North 8.0 mph 14.0 mph 82% 0.00 in 251 W/m2
12:03 7.3 °F 3.2 °F 30.11 in North 14.0 mph 14.0 mph 83% 0.00 in 259 W/m2
12:08 7.4 °F 3.3 °F 30.12 in North 6.0 mph 14.0 mph 83% 0.00 in 279 W/m2
12:13 7.6 °F 3.5 °F 30.12 in North 12.0 mph 12.0 mph 83% 0.00 in 320 W/m2
12:18 7.9 °F 3.8 °F 30.12 in North 10.0 mph 12.0 mph 83% 0.00 in 330 W/m2
12:23 8.2 °F 4.1 °F 30.12 in NNW 11.0 mph 12.0 mph 83% 0.00 in 304 W/m2
12:28 7.4 °F 3.1 °F 30.12 in NNW 9.0 mph 12.0 mph 82% 0.00 in 313 W/m2
12:33 7.3 °F 3.2 °F 30.13 in North 8.0 mph 12.0 mph 83% 0.00 in 313 W/m2
12:38 6.9 °F 2.6 °F 30.13 in NNW 9.0 mph 11.0 mph 82% 0.00 in 279 W/m2
12:43 6.5 °F 2.2 °F 30.13 in NNW 8.0 mph 12.0 mph 82% 0.00 in 283 W/m2
12:48 6.6 °F 2.3 °F 30.13 in NNW 9.0 mph 12.0 mph 82% 0.00 in 299 W/m2
12:53 6.8 °F 2.7 °F 30.13 in North 10.0 mph 11.0 mph 83% 0.00 in 318 W/m2
12:58 6.9 °F 2.8 °F 30.13 in North 6.0 mph 11.0 mph 83% 0.00 in 323 W/m2
13:03 7.2 °F 3.4 °F 30.14 in North 6.0 mph 11.0 mph 84% 0.00 in 306 W/m2
13:08 6.7 °F 2.4 °F 30.14 in NW 8.0 mph 12.0 mph 82% 0.00 in 295 W/m2
13:13 6.6 °F 2.3 °F 30.14 in North 10.0 mph 12.0 mph 82% 0.00 in 302 W/m2
13:18 6.9 °F 2.6 °F 30.14 in NNW 10.0 mph 13.0 mph 82% 0.00 in 338 W/m2
13:23 6.8 °F 2.2 °F 30.15 in NNW 11.0 mph 14.0 mph 81% 0.00 in 366 W/m2
13:28 6.7 °F 1.8 °F 30.15 in NNW 11.0 mph 14.0 mph 80% 0.00 in 378 W/m2
13:33 6.9 °F 1.8 °F 30.15 in North 9.0 mph 13.0 mph 79% 0.00 in 366 W/m2
13:38 6.9 °F 1.2 °F 30.16 in NW 8.0 mph 13.0 mph 77% 0.00 in 399 W/m2
13:43 7.0 °F 1.3 °F 30.16 in NNW 7.0 mph 12.0 mph 77% 0.00 in 392 W/m2
13:48 7.2 °F 1.2 °F 30.16 in NNW 9.0 mph 11.0 mph 76% 0.00 in 420 W/m2
13:53 7.5 °F 1.5 °F 30.16 in NNW 6.0 mph 12.0 mph 76% 0.00 in 455 W/m2
13:58 7.6 °F 1.6 °F 30.16 in NNW 7.0 mph 12.0 mph 76% 0.00 in 434 W/m2
14:03 7.9 °F 2.2 °F 30.17 in NNW 7.0 mph 10.0 mph 77% 0.00 in 411 W/m2
14:08 8.0 °F 2.0 °F 30.17 in NNW 9.0 mph 13.0 mph 76% 0.00 in 394 W/m2
14:13 7.7 °F 1.4 °F 30.17 in NNW 12.0 mph 13.0 mph 75% 0.00 in 366 W/m2
14:18 7.1 °F 0.6 °F 30.17 in NNW 9.0 mph 13.0 mph 74% 0.00 in 371 W/m2
14:23 7.0 °F 0.2 °F 30.17 in NNW 7.0 mph 14.0 mph 73% 0.00 in 385 W/m2
14:28 6.8 °F -0.6 °F 30.18 in NNW 5.0 mph 15.0 mph 71% 0.00 in 424 W/m2
14:33 6.7 °F -1.0 °F 30.18 in NNW 8.0 mph 15.0 mph 70% 0.00 in 397 W/m2
14:38 6.8 °F -0.3 °F 30.18 in NNW 11.0 mph 14.0 mph 72% 0.00 in 374 W/m2
14:43 6.7 °F -1.0 °F 30.19 in NNW 7.0 mph 16.0 mph 70% 0.00 in 374 W/m2
14:48 6.7 °F -1.3 °F 30.19 in North 9.0 mph 23.0 mph 69% 0.00 in 362 W/m2
14:53 6.6 °F -1.4 °F 30.18 in NNW 11.0 mph 23.0 mph 69% 0.00 in 352 W/m2
14:58 6.5 °F -0.6 °F 30.19 in NW 9.0 mph 15.0 mph 72% 0.00 in 341 W/m2
15:03 6.3 °F -0.8 °F 30.19 in NNW 10.0 mph 15.0 mph 72% 0.00 in 311 W/m2
15:08 5.9 °F -1.8 °F 30.19 in NW 10.0 mph 14.0 mph 70% 0.00 in 285 W/m2
15:13 6.1 °F -1.9 °F 30.20 in NW 9.0 mph 16.0 mph 69% 0.00 in 274 W/m2
15:19 5.8 °F -2.2 °F 30.20 in NW 7.0 mph 22.0 mph 69% 0.00 in 278 W/m2
15:23 5.7 °F -2.0 °F 30.21 in NW 10.0 mph 22.0 mph 70% 0.00 in 276 W/m2
15:28 5.7 °F -2.0 °F 30.21 in NW 10.0 mph 15.0 mph 70% 0.00 in 272 W/m2
15:34 5.4 °F -2.6 °F 30.21 in NNW 7.0 mph 15.0 mph 69% 0.00 in 251 W/m2
15:39 5.4 °F -2.6 °F 30.22 in NNW 7.0 mph 15.0 mph 69% 0.00 in 237 W/m2
15:44 5.4 °F -2.6 °F 30.22 in NNW 7.0 mph 15.0 mph 69% 0.00 in 236 W/m2
15:49 5.2 °F -2.5 °F 30.23 in NNW 7.0 mph 18.0 mph 70% 0.00 in 223 W/m2
15:54 5.2 °F -2.2 °F 30.23 in NW 7.0 mph 18.0 mph 71% 0.00 in 234 W/m2
15:59 5.4 °F -1.7 °F 30.24 in NW 7.0 mph 18.0 mph 72% 0.00 in 258 W/m2
16:04 5.7 °F -1.1 °F 30.24 in WNW 8.0 mph 15.0 mph 73% 0.00 in 267 W/m2
16:09 5.9 °F -0.9 °F 30.25 in NNW 6.0 mph 11.0 mph 73% 0.00 in 255 W/m2
16:14 6.3 °F -0.2 °F 30.25 in NW 4.0 mph 10.0 mph 74% 0.00 in 204 W/m2
16:19 6.4 °F -0.4 °F 30.25 in NNW 6.0 mph 15.0 mph 73% 0.00 in 181 W/m2
16:24 6.4 °F -0.4 °F 30.25 in WNW 6.0 mph 19.0 mph 73% 0.00 in 162 W/m2
16:29 6.1 °F -0.7 °F 30.25 in NNW 17.0 mph 22.0 mph 73% 0.00 in 134 W/m2
16:34 5.9 °F -1.2 °F 30.25 in NW 6.0 mph 22.0 mph 72% 0.00 in 137 W/m2
16:39 5.8 °F -1.3 °F 30.26 in NW 10.0 mph 22.0 mph 72% 0.00 in 135 W/m2
16:44 5.5 °F -2.2 °F 30.26 in NNW 7.0 mph 13.0 mph 70% 0.00 in 125 W/m2
16:49 5.4 °F -2.6 °F 30.26 in WNW 8.0 mph 13.0 mph 69% 0.00 in 118 W/m2
16:54 5.4 °F -2.6 °F 30.27 in NW 8.0 mph 12.0 mph 69% 0.00 in 111 W/m2
16:59 5.1 °F -3.2 °F 30.27 in NW 8.0 mph 12.0 mph 68% 0.00 in 104 W/m2
17:04 5.0 °F -3.6 °F 30.28 in NNW 6.0 mph 8.0 mph 67% 0.00 in 107 W/m2
17:09 5.0 °F -3.0 °F 30.28 in NNW 7.0 mph 10.0 mph 69% 0.00 in 109 W/m2
17:14 4.9 °F -3.1 °F 30.29 in NW 7.0 mph 22.0 mph 69% 0.00 in 118 W/m2
17:19 4.6 °F -3.6 °F 30.28 in NW 7.0 mph 22.0 mph 68% 0.00 in 62 W/m2
17:24 4.2 °F -4.0 °F 30.29 in WNW 8.0 mph 12.0 mph 68% 0.00 in 44 W/m2
17:29 3.9 °F -4.3 °F 30.29 in NW 8.0 mph 13.0 mph 68% 0.00 in 40 W/m2
17:34 3.7 °F -4.5 °F 30.29 in NW 6.0 mph 13.0 mph 68% 0.00 in 39 W/m2
17:39 3.5 °F -4.7 °F 30.29 in WNW 6.0 mph 11.0 mph 68% 0.00 in 39 W/m2
17:44 3.2 °F -4.7 °F 30.30 in WNW 8.0 mph 10.0 mph 69% 0.00 in 30 W/m2
17:49 3.0 °F -4.9 °F 30.30 in WNW 8.0 mph 10.0 mph 69% 0.00 in 23 W/m2
17:54 2.8 °F -5.1 °F 30.30 in NW 4.0 mph 10.0 mph 69% 0.00 in 19 W/m2
17:59 2.7 °F -5.2 °F 30.30 in NW 5.0 mph 10.0 mph 69% 0.00 in 16 W/m2
18:04 2.4 °F -5.2 °F 30.31 in WNW 8.0 mph 10.0 mph 70% 0.00 in 12 W/m2
18:09 2.3 °F -5.3 °F 30.31 in NW 7.0 mph 10.0 mph 70% 0.00 in 7 W/m2
18:14 2.1 °F -5.2 °F 30.31 in NW 4.0 mph 8.0 mph 71% 0.00 in 5 W/m2
18:19 2.0 °F -5.5 °F 30.32 in NW 3.0 mph 8.0 mph 70% 0.00 in 0 W/m2
18:24 1.8 °F -5.4 °F 30.32 in NW 6.0 mph 8.0 mph 71% 0.00 in 0 W/m2
18:29 1.7 °F -5.8 °F 30.32 in NW 4.0 mph 8.0 mph 70% 0.00 in 0 W/m2
18:34 1.5 °F -5.7 °F 30.32 in NW 5.0 mph 8.0 mph 71% 0.00 in 0 W/m2
18:39 1.3 °F -5.9 °F 30.32 in NW 5.0 mph 6.0 mph 71% 0.00 in 0 W/m2
18:44 1.3 °F -5.9 °F 30.32 in NW 5.0 mph 8.0 mph 71% 0.00 in 0 W/m2
18:49 1.4 °F -5.8 °F 30.32 in NW 5.0 mph 9.0 mph 71% 0.00 in 0 W/m2
18:54 1.3 °F -6.2 °F 30.33 in NW 5.0 mph 9.0 mph 70% 0.00 in 0 W/m2
18:59 1.1 °F -6.1 °F 30.33 in NW 3.0 mph 8.0 mph 71% 0.00 in 0 W/m2
19:04 0.8 °F -6.4 °F 30.33 in WNW 4.0 mph 8.0 mph 71% 0.00 in 0 W/m2
19:09 0.5 °F -6.7 °F 30.33 in NW 4.0 mph 6.0 mph 71% 0.00 in 0 W/m2
19:14 0.2 °F -6.7 °F 30.33 in NW 4.0 mph 5.0 mph 72% 0.00 in 0 W/m2
19:19 0.0 °F -6.9 °F 30.33 in NW 4.0 mph 6.0 mph 72% 0.00 in 0 W/m2
19:24 -0.2 °F -6.8 °F 30.33 in WNW 3.0 mph 6.0 mph 73% 0.00 in 0 W/m2
19:29 -0.4 °F -7.0 °F 30.33 in WNW 4.0 mph 6.0 mph 73% 0.00 in 0 W/m2
19:34 -0.5 °F -6.8 °F 30.33 in WNW 3.0 mph 5.0 mph 74% 0.00 in 0 W/m2
19:39 -0.6 °F -6.9 °F 30.33 in Calm   5.0 mph 74% 0.00 in 0 W/m2
19:44 -0.6 °F -6.6 °F 30.34 in WNW 1.0 mph 5.0 mph 75% 0.00 in 0 W/m2
19:49 -0.7 °F -6.7 °F 30.34 in Calm   5.0 mph 75% 0.00 in 0 W/m2
19:54 -1.0 °F -7.0 °F 30.34 in Calm   2.0 mph 75% 0.00 in 0 W/m2
19:59 -1.3 °F -7.3 °F 30.33 in Calm   2.0 mph 75% 0.00 in 0 W/m2
20:04 -1.6 °F -7.3 °F 30.34 in Calm     76% 0.00 in 0 W/m2
20:09 -1.7 °F -7.4 °F 30.34 in WNW 4.0 mph 5.0 mph 76% 0.00 in 0 W/m2
20:14 -1.7 °F -7.2 °F 30.34 in WNW 1.0 mph 5.0 mph 77% 0.00 in 0 W/m2
20:19 -1.9 °F -7.3 °F 30.34 in Calm   5.0 mph 77% 0.00 in 0 W/m2
20:24 -2.2 °F -7.6 °F 30.34 in Calm   3.0 mph 77% 0.00 in 0 W/m2
20:29 -2.1 °F -7.5 °F 30.34 in West 4.0 mph 5.0 mph 77% 0.00 in 0 W/m2
20:34 -2.0 °F -7.4 °F 30.34 in WNW 4.0 mph 5.0 mph 77% 0.00 in 0 W/m2
20:39 -2.0 °F -7.4 °F 30.34 in West 5.0 mph 5.0 mph 77% 0.00 in 0 W/m2
20:44 -1.9 °F -7.3 °F 30.34 in West 4.0 mph 5.0 mph 77% 0.00 in 0 W/m2
20:49 -1.6 °F -7.1 °F 30.34 in WNW 5.0 mph 5.0 mph 77% 0.00 in 0 W/m2
20:54 -1.3 °F -6.8 °F 30.34 in NW 4.0 mph 5.0 mph 77% 0.00 in 0 W/m2
20:59 -1.1 °F -6.8 °F 30.34 in Calm   5.0 mph 76% 0.00 in 0 W/m2
21:04 -0.7 °F -6.5 °F 30.34 in NW 4.0 mph 5.0 mph 76% 0.00 in 0 W/m2
21:09 -0.3 °F -6.3 °F 30.34 in Calm   5.0 mph 75% 0.00 in 0 W/m2
21:14 -0.5 °F -6.8 °F 30.34 in Calm   5.0 mph 74% 0.00 in 0 W/m2
21:19 -0.6 °F -6.9 °F 30.34 in WNW 3.0 mph 5.0 mph 74% 0.00 in 0 W/m2
21:24 -0.4 °F -6.7 °F 30.34 in WNW 2.0 mph 5.0 mph 74% 0.00 in 0 W/m2
21:29 -0.5 °F -6.8 °F 30.34 in WNW 3.0 mph 6.0 mph 74% 0.00 in 0 W/m2
21:34 -0.9 °F -7.2 °F 30.34 in West 4.0 mph 6.0 mph 74% 0.00 in 0 W/m2
21:39 -1.0 °F -7.3 °F 30.34 in West 4.0 mph 5.0 mph 74% 0.00 in 0 W/m2
21:44 -0.8 °F -7.1 °F 30.34 in West 5.0 mph 6.0 mph 74% 0.00 in 0 W/m2
21:49 -1.1 °F -7.4 °F 30.34 in West 5.0 mph 6.0 mph 74% 0.00 in 0 W/m2
21:54 -1.7 °F -8.0 °F 30.34 in WSW 4.0 mph 5.0 mph 74% 0.00 in 0 W/m2
21:59 -2.6 °F -8.8 °F 30.34 in Calm   5.0 mph 74% 0.00 in 0 W/m2
22:04 -3.1 °F -9.1 °F 30.35 in Calm   5.0 mph 75% 0.00 in 0 W/m2
22:09 -3.1 °F -8.8 °F 30.35 in Calm   1.0 mph 76% 0.00 in 0 W/m2
22:14 -3.4 °F -9.1 °F 30.35 in Calm     76% 0.00 in 0 W/m2
22:19 -3.6 °F -9.3 °F 30.35 in Calm     76% 0.00 in 0 W/m2
22:24 -3.6 °F -9.0 °F 30.35 in Calm     77% 0.00 in 0 W/m2
22:29 -3.4 °F -8.8 °F 30.35 in Calm     77% 0.00 in 0 W/m2
22:34 -3.2 °F -8.4 °F 30.35 in Calm     78% 0.00 in 0 W/m2
22:39 -3.2 °F -8.6 °F 30.34 in Calm     77% 0.00 in 0 W/m2
22:44 -3.1 °F -8.3 °F 30.35 in Calm     78% 0.00 in 0 W/m2
22:49 -2.7 °F -7.9 °F 30.35 in Calm   3.0 mph 78% 0.00 in 0 W/m2
22:54 -2.3 °F -7.5 °F 30.35 in Calm   4.0 mph 78% 0.00 in 0 W/m2
22:59 -2.2 °F -7.6 °F 30.35 in Calm   4.0 mph 77% 0.00 in 0 W/m2
23:04 -1.8 °F -7.3 °F 30.35 in SW 3.0 mph 4.0 mph 77% 0.00 in 0 W/m2
23:09 -1.4 °F -6.9 °F 30.35 in SW 4.0 mph 5.0 mph 77% 0.00 in 0 W/m2
23:14 -1.2 °F -6.9 °F 30.35 in Calm   5.0 mph 76% 0.00 in 0 W/m2
23:19 -1.1 °F -6.8 °F 30.35 in SW 4.0 mph 5.0 mph 76% 0.00 in 0 W/m2
23:24 -1.1 °F -6.8 °F 30.35 in SW 5.0 mph 5.0 mph 76% 0.00 in 0 W/m2
23:29 -1.2 °F -6.9 °F 30.35 in SW 5.0 mph 5.0 mph 76% 0.00 in 0 W/m2
23:34 -1.4 °F -7.1 °F 30.35 in SW 2.0 mph 5.0 mph 76% 0.00 in 0 W/m2
23:39 -1.6 °F -7.3 °F 30.35 in SW 3.0 mph 6.0 mph 76% 0.00 in 0 W/m2
23:44 -1.6 °F -7.3 °F 30.35 in SW 5.0 mph 6.0 mph 76% 0.00 in 0 W/m2
23:49 -1.6 °F -7.1 °F 30.34 in SW 5.0 mph 6.0 mph 77% 0.00 in 0 W/m2
23:54 -1.6 °F -7.3 °F 30.34 in SW 4.0 mph 6.0 mph 76% 0.00 in 0 W/m2
23:59 -1.8 °F -7.5 °F 30.34 in WSW 5.0 mph 6.0 mph 76% 0.00 in 0 W/m2
Bismarck, North Dakota, USA
Compliments of Weather Underground - 4 mb